createdAt,value
2022-09-21T00:01:52.307Z,71.60
2022-09-21T00:04:22.113Z,71.79
2022-09-21T00:06:53.698Z,71.83
2022-09-21T00:09:25.240Z,71.71
2022-09-21T00:11:58.360Z,71.27
2022-09-21T00:14:31.596Z,71.45
2022-09-21T00:17:03.096Z,72.03
2022-09-21T00:19:34.746Z,72.11
2022-09-21T00:22:07.805Z,72.06
2022-09-21T00:24:39.450Z,71.85
2022-09-21T00:27:10.896Z,71.96
2022-09-21T00:29:42.497Z,72.60
2022-09-21T00:32:12.521Z,73.19
2022-09-21T00:34:44.191Z,73.46
2022-09-21T00:37:14.022Z,73.99
2022-09-21T00:39:45.609Z,74.11
2022-09-21T00:42:16.363Z,73.75
2022-09-21T00:44:47.934Z,74.00
2022-09-21T00:47:21.598Z,74.37
2022-09-21T00:49:55.007Z,74.52
2022-09-21T00:52:27.311Z,75.20
2022-09-21T00:55:03.543Z,76.06
2022-09-21T00:57:35.853Z,76.34
2022-09-21T01:00:10.448Z,76.14
2022-09-21T01:02:42.057Z,75.93
2022-09-21T01:05:14.070Z,76.06
2022-09-21T01:07:47.249Z,76.35
2022-09-21T01:10:19.946Z,76.69
2022-09-21T01:12:57.821Z,76.74
2022-09-21T01:15:37.169Z,76.65
2022-09-21T01:18:15.534Z,76.93
2022-09-21T01:21:08.003Z,77.03
2022-09-21T01:23:47.059Z,77.49
2022-09-21T01:26:25.503Z,77.91
2022-09-21T01:29:08.855Z,78.14
2022-09-21T01:31:42.733Z,78.15
2022-09-21T01:34:17.547Z,78.11
2022-09-21T01:36:49.409Z,77.70
2022-09-21T01:39:21.298Z,78.17
2022-09-21T01:41:51.047Z,78.78
2022-09-21T01:44:23.503Z,79.71
2022-09-21T01:46:55.076Z,80.11
2022-09-21T01:49:29.237Z,80.31
2022-09-21T01:52:02.512Z,80.16
2022-09-21T01:54:36.771Z,80.15
2022-09-21T01:57:12.400Z,80.44
2022-09-21T01:59:48.077Z,80.99
2022-09-21T02:02:22.261Z,81.71
2022-09-21T02:04:53.767Z,82.00
2022-09-21T02:07:25.336Z,82.00
2022-09-21T02:09:56.033Z,82.13
2022-09-21T02:12:27.690Z,82.92
2022-09-21T02:14:57.494Z,83.14
2022-09-21T02:17:36.647Z,83.61
2022-09-21T02:20:18.012Z,83.81
2022-09-21T02:22:59.158Z,84.23
2022-09-21T02:25:36.788Z,84.20
2022-09-21T02:28:10.917Z,84.41
2022-09-21T02:30:43.370Z,84.38
2022-09-21T02:33:18.103Z,84.84
2022-09-21T02:35:52.382Z,85.53
2022-09-21T02:38:27.260Z,86.18
2022-09-21T02:41:00.634Z,86.47
2022-09-21T02:43:34.653Z,86.53
2022-09-21T02:46:08.147Z,86.29
2022-09-21T02:48:42.667Z,85.99
2022-09-21T02:51:16.331Z,86.19
2022-09-21T02:53:48.015Z,86.58
2022-09-21T02:56:19.852Z,86.70
2022-09-21T02:58:51.422Z,86.57
2022-09-21T03:01:23.458Z,86.51
2022-09-21T03:03:53.335Z,86.70
2022-09-21T03:06:25.192Z,86.66
2022-09-21T03:08:57.821Z,87.23
2022-09-21T03:11:30.183Z,87.87
2022-09-21T03:14:02.863Z,88.35
2022-09-21T03:16:34.512Z,88.56
2022-09-21T03:19:06.302Z,88.38
2022-09-21T03:21:41.210Z,88.58
2022-09-21T03:24:36.111Z,88.87
2022-09-21T03:27:09.210Z,89.19
2022-09-21T03:29:40.757Z,89.56
2022-09-21T03:32:11.055Z,89.58
2022-09-21T03:34:42.934Z,89.63
2022-09-21T03:37:14.813Z,89.29
2022-09-21T03:39:47.819Z,89.15
2022-09-21T03:42:19.488Z,89.33
2022-09-21T03:44:51.441Z,89.71
2022-09-21T03:47:23.392Z,89.91
2022-09-21T03:49:54.976Z,90.08
2022-09-21T03:52:27.059Z,89.86
2022-09-21T03:54:56.899Z,89.72
2022-09-21T03:57:28.640Z,89.56
2022-09-21T04:00:00.204Z,89.52
2022-09-21T04:02:30.270Z,89.89
2022-09-21T04:05:02.316Z,90.06
2022-09-21T04:07:35.989Z,90.23
2022-09-21T04:10:08.997Z,90.13
2022-09-21T04:12:41.465Z,90.02
2022-09-21T04:15:14.460Z,90.03
2022-09-21T04:17:46.342Z,90.13
2022-09-21T04:20:16.088Z,90.33
2022-09-21T04:22:47.887Z,90.30
2022-09-21T04:25:17.589Z,89.96
2022-09-21T04:27:48.943Z,89.88
2022-09-21T04:30:20.851Z,89.99
2022-09-21T04:32:50.744Z,90.24
2022-09-21T04:35:23.048Z,90.35
2022-09-21T04:37:57.746Z,90.09
2022-09-21T04:40:29.701Z,90.08
2022-09-21T04:42:59.511Z,90.19
2022-09-21T04:45:32.787Z,90.32
2022-09-21T04:48:04.884Z,90.54
2022-09-21T04:50:36.681Z,90.54
2022-09-21T04:53:08.124Z,90.55
2022-09-21T04:55:39.510Z,90.65
2022-09-21T04:58:10.969Z,90.81
2022-09-21T05:00:42.488Z,90.98
2022-09-21T05:03:14.076Z,91.08
2022-09-21T05:05:50.798Z,90.85
2022-09-21T05:08:43.016Z,90.79
2022-09-21T05:11:16.004Z,90.88
2022-09-21T05:13:47.782Z,90.99
2022-09-21T05:16:17.643Z,90.81
2022-09-21T05:18:49.079Z,90.47
2022-09-21T05:21:20.614Z,90.07
2022-09-21T05:23:51.989Z,89.92
2022-09-21T05:26:23.949Z,89.81
2022-09-21T05:28:54.504Z,89.47
2022-09-21T05:31:33.603Z,89.06
2022-09-21T05:34:23.013Z,88.46
2022-09-21T05:36:58.427Z,88.23
2022-09-21T05:39:31.152Z,88.22
2022-09-21T05:42:03.922Z,87.88
2022-09-21T05:44:36.583Z,87.29
2022-09-21T05:47:13.194Z,86.32
2022-09-21T05:49:50.711Z,85.87
2022-09-21T05:52:24.349Z,85.33
2022-09-21T05:55:04.487Z,84.77
2022-09-21T05:57:42.758Z,84.28
2022-09-21T06:00:18.816Z,83.72
2022-09-21T06:02:59.282Z,83.66
2022-09-21T06:05:31.643Z,83.37
2022-09-21T06:08:06.249Z,83.18
2022-09-21T06:10:37.786Z,82.33
2022-09-21T06:13:09.197Z,81.10
2022-09-21T06:15:40.660Z,79.99
2022-09-21T06:18:17.542Z,79.90
2022-09-21T06:20:49.891Z,79.73
2022-09-21T06:23:21.241Z,79.27
2022-09-21T06:25:58.552Z,78.92
2022-09-21T06:28:30.506Z,78.10
2022-09-21T06:31:03.015Z,77.62
2022-09-21T06:33:37.869Z,77.38
2022-09-21T06:36:09.553Z,76.79
2022-09-21T06:38:40.971Z,76.53
2022-09-21T06:41:10.984Z,76.43
2022-09-21T06:43:42.546Z,76.47
2022-09-21T06:46:14.554Z,76.65
2022-09-21T06:48:46.348Z,76.40
2022-09-21T06:51:16.334Z,76.08
2022-09-21T06:53:47.887Z,76.03
2022-09-21T06:56:19.712Z,75.68
2022-09-21T06:58:51.116Z,75.91
2022-09-21T07:01:23.569Z,75.74
2022-09-21T07:03:55.491Z,75.26
2022-09-21T07:06:27.005Z,74.24
2022-09-21T07:11:50.582Z,73.61
2022-09-21T07:14:22.933Z,72.97
2022-09-21T07:16:54.471Z,72.78
2022-09-21T07:19:26.163Z,72.63
2022-09-21T07:21:58.087Z,72.12
2022-09-21T07:24:29.516Z,72.19
2022-09-21T07:27:00.967Z,71.63
2022-09-21T07:29:32.537Z,70.93
2022-09-21T07:32:06.027Z,70.65
2022-09-21T07:34:39.341Z,70.05
2022-09-21T07:37:11.094Z,69.09
2022-09-21T07:39:41.025Z,68.96
2022-09-21T07:42:12.486Z,69.63
2022-09-21T07:44:43.914Z,69.42
2022-09-21T07:47:15.442Z,69.55
2022-09-21T07:49:47.450Z,69.76
2022-09-21T07:52:19.744Z,69.79
2022-09-21T07:54:51.102Z,69.09
2022-09-21T07:57:40.283Z,67.83
2022-09-21T08:00:14.002Z,67.17
2022-09-21T08:02:47.843Z,65.89
2022-09-21T08:05:19.884Z,65.83
2022-09-21T08:07:53.565Z,66.19
2022-09-21T08:10:25.541Z,66.51
2022-09-21T08:12:57.422Z,66.51
2022-09-21T08:15:47.473Z,66.47
2022-09-21T08:18:19.000Z,66.54
2022-09-21T08:20:57.433Z,66.64
2022-09-21T08:23:29.275Z,65.78
2022-09-21T08:26:03.035Z,65.66
2022-09-21T08:28:34.751Z,65.68
2022-09-21T08:31:04.643Z,65.36
2022-09-21T08:33:36.366Z,63.75
2022-09-21T08:36:08.538Z,62.90
2022-09-21T08:38:40.657Z,62.89
2022-09-21T08:41:20.378Z,62.29
2022-09-21T08:43:53.695Z,60.73
2022-09-21T08:46:26.252Z,60.09
2022-09-21T08:49:00.030Z,59.81
2022-09-21T08:51:33.068Z,58.83
2022-09-21T08:54:08.966Z,58.45
2022-09-21T08:57:01.015Z,58.44
2022-09-21T08:59:32.470Z,57.92
2022-09-21T09:02:09.414Z,57.67
2022-09-21T09:04:50.870Z,56.17
2022-09-21T09:07:33.444Z,55.51
2022-09-21T09:10:21.779Z,55.49
2022-09-21T09:12:58.265Z,55.78
2022-09-21T09:15:53.994Z,55.47
2022-09-21T09:18:27.977Z,55.50
2022-09-21T09:21:01.634Z,55.46
2022-09-21T09:23:36.114Z,54.99
2022-09-21T09:26:10.175Z,54.36
2022-09-21T09:28:43.105Z,53.51
2022-09-21T09:31:18.395Z,53.63
2022-09-21T09:33:53.124Z,53.84
2022-09-21T09:36:46.487Z,53.34
2022-09-21T09:39:17.845Z,52.71
2022-09-21T09:42:00.964Z,52.51
2022-09-21T09:44:40.300Z,52.64
2022-09-21T09:47:17.693Z,52.69
2022-09-21T09:49:55.221Z,52.53
2022-09-21T09:52:27.136Z,51.84
2022-09-21T09:54:58.869Z,50.61
2022-09-21T09:57:32.518Z,50.57
2022-09-21T10:00:09.727Z,50.56
2022-09-21T10:02:50.950Z,50.27
2022-09-21T10:05:27.373Z,49.76
2022-09-21T10:07:59.214Z,49.39
2022-09-21T10:10:36.377Z,47.06
2022-09-21T10:13:21.534Z,45.17
2022-09-21T10:15:54.619Z,43.53
2022-09-21T10:18:27.943Z,42.29
2022-09-21T10:21:01.852Z,42.86
2022-09-21T10:23:34.811Z,42.86
2022-09-21T10:26:08.934Z,43.00
2022-09-21T10:28:40.532Z,42.63
2022-09-21T10:31:24.056Z,43.19
2022-09-21T10:34:06.762Z,43.69
2022-09-21T10:36:39.485Z,44.15
2022-09-21T10:39:31.441Z,44.73
2022-09-21T10:42:05.586Z,44.90
2022-09-21T10:44:42.953Z,45.21
2022-09-21T10:47:23.412Z,45.43
2022-09-21T10:49:55.910Z,45.24
2022-09-21T10:52:33.565Z,45.14
2022-09-21T10:55:05.884Z,45.36
2022-09-21T10:57:37.871Z,45.62
2022-09-21T11:00:20.535Z,45.64
2022-09-21T11:02:52.343Z,45.85
2022-09-21T11:05:25.551Z,45.60
2022-09-21T11:07:58.780Z,45.25
2022-09-21T11:10:34.728Z,45.46
2022-09-21T11:13:18.322Z,45.26
2022-09-21T11:15:53.386Z,45.52
2022-09-21T11:18:27.418Z,45.75
2022-09-21T11:21:00.455Z,46.01
2022-09-21T11:23:44.006Z,45.82
2022-09-21T11:26:18.960Z,45.63
2022-09-21T11:28:52.323Z,45.48
2022-09-21T11:31:42.861Z,45.16
2022-09-21T11:34:27.256Z,43.48
2022-09-21T11:37:10.634Z,42.56
2022-09-21T11:39:51.989Z,42.54
2022-09-21T11:42:36.174Z,43.01
2022-09-21T11:45:10.355Z,43.47
2022-09-21T11:47:51.688Z,43.30
2022-09-21T11:50:38.634Z,42.88
2022-09-21T11:53:24.171Z,42.57
2022-09-21T11:56:18.218Z,41.58
2022-09-21T11:58:53.239Z,41.74
2022-09-21T12:01:37.656Z,41.95
2022-09-21T12:04:35.068Z,41.25
2022-09-21T12:07:14.125Z,41.32
2022-09-21T12:10:12.408Z,41.31
2022-09-21T12:12:47.640Z,40.85
2022-09-21T12:15:23.134Z,41.07
2022-09-21T12:17:58.465Z,41.22
2022-09-21T12:20:33.751Z,41.52
2022-09-21T12:23:09.121Z,41.81
2022-09-21T12:25:42.351Z,42.08
2022-09-21T12:28:18.980Z,41.99
2022-09-21T12:30:58.485Z,42.16
2022-09-21T12:33:36.152Z,42.17
2022-09-21T12:36:10.616Z,42.21
2022-09-21T12:38:46.161Z,42.33
2022-09-21T12:41:19.791Z,42.53
2022-09-21T12:43:52.700Z,42.52
2022-09-21T12:46:25.437Z,42.97
2022-09-21T12:48:56.932Z,43.08
2022-09-21T12:51:30.482Z,42.94
2022-09-21T12:54:16.644Z,42.94
2022-09-21T12:56:51.758Z,42.37
2022-09-21T12:59:35.036Z,41.68
2022-09-21T13:02:14.824Z,40.53
2022-09-21T13:04:53.593Z,40.64
2022-09-21T13:07:34.379Z,40.54
2022-09-21T13:10:14.504Z,40.53
2022-09-21T13:12:46.823Z,40.43
2022-09-21T13:15:22.333Z,40.15
2022-09-21T13:18:02.199Z,40.49
2022-09-21T13:20:39.821Z,40.61
2022-09-21T13:23:17.719Z,40.38
2022-09-21T13:26:00.282Z,40.16
2022-09-21T13:28:57.810Z,39.69
2022-09-21T13:31:45.154Z,39.45
2022-09-21T13:34:28.576Z,39.99
2022-09-21T13:37:29.629Z,39.98
2022-09-21T13:40:42.625Z,40.36
2022-09-21T13:43:58.668Z,40.77
2022-09-21T13:46:58.193Z,41.13
2022-09-21T13:49:40.470Z,40.88
2022-09-21T13:52:26.597Z,40.07
2022-09-21T13:54:59.984Z,39.74
2022-09-21T13:57:34.556Z,40.24
2022-09-21T14:00:33.196Z,40.67
2022-09-21T14:03:06.329Z,41.19
2022-09-21T14:05:40.976Z,41.63
2022-09-21T14:08:31.541Z,42.04
2022-09-21T14:11:03.897Z,41.70
2022-09-21T14:13:38.297Z,41.33
2022-09-21T14:16:45.940Z,40.62
2022-09-21T14:20:03.670Z,39.95
2022-09-21T14:22:42.914Z,39.14
2022-09-21T14:25:29.469Z,39.29
2022-09-21T14:28:06.522Z,39.19
2022-09-21T14:30:38.319Z,38.90
2022-09-21T14:33:27.036Z,38.87
2022-09-21T14:35:58.504Z,38.87
2022-09-21T14:38:30.532Z,38.70
2022-09-21T14:41:03.141Z,38.84
2022-09-21T14:43:36.264Z,38.91
2022-09-21T14:46:22.171Z,39.26
2022-09-21T14:49:00.105Z,39.76
2022-09-21T14:51:36.753Z,40.27
2022-09-21T14:54:31.636Z,40.62
2022-09-21T14:57:30.706Z,41.03
2022-09-21T15:00:15.097Z,41.43
2022-09-21T15:02:47.882Z,41.97
2022-09-21T15:05:30.512Z,42.38
2022-09-21T15:08:29.825Z,42.99
2022-09-21T15:11:05.287Z,43.49
2022-09-21T15:13:49.005Z,44.16
2022-09-21T15:16:39.965Z,44.80
2022-09-21T15:19:27.307Z,45.33
2022-09-21T15:22:13.358Z,45.61
2022-09-21T15:24:51.962Z,45.87
2022-09-21T15:27:25.576Z,46.22
2022-09-21T15:29:57.330Z,46.55
2022-09-21T15:32:35.356Z,46.80
2022-09-21T15:35:08.893Z,47.04
2022-09-21T15:37:41.131Z,47.29
2022-09-21T15:40:19.015Z,47.64
2022-09-21T15:43:04.768Z,47.65
2022-09-21T15:45:39.654Z,47.87
2022-09-21T15:48:13.053Z,47.96
2022-09-21T15:50:45.202Z,48.20
2022-09-21T15:53:22.153Z,48.31
2022-09-21T15:55:54.241Z,48.63
2022-09-21T15:58:37.489Z,48.93
2022-09-21T16:01:13.143Z,49.23
2022-09-21T16:03:44.818Z,49.70
2022-09-21T16:06:29.427Z,49.53
2022-09-21T16:09:00.975Z,49.52
2022-09-21T16:11:38.701Z,49.64
2022-09-21T16:14:30.630Z,50.25
2022-09-21T16:17:08.611Z,51.02
2022-09-21T16:20:04.468Z,51.17
2022-09-21T16:22:41.300Z,51.08
2022-09-21T16:25:27.736Z,51.43
2022-09-21T16:28:00.822Z,51.60
2022-09-21T16:30:47.768Z,52.19
2022-09-21T16:33:40.185Z,52.44
2022-09-21T16:36:47.278Z,52.70
2022-09-21T16:39:19.609Z,52.87
2022-09-21T16:41:56.574Z,53.23
2022-09-21T16:44:31.111Z,53.51
2022-09-21T16:47:03.599Z,53.75
2022-09-21T16:49:36.448Z,53.75
2022-09-21T16:52:08.377Z,53.79
2022-09-21T16:54:39.861Z,53.62
2022-09-21T16:57:14.717Z,53.82
2022-09-21T16:59:46.772Z,53.78
2022-09-21T17:02:18.372Z,53.83
2022-09-21T17:04:49.851Z,53.72
2022-09-21T17:07:21.363Z,53.68
2022-09-21T17:09:52.889Z,53.84
2022-09-21T17:12:25.478Z,53.68
2022-09-21T17:14:57.048Z,53.55
2022-09-21T17:17:28.552Z,53.45
2022-09-21T17:20:00.143Z,53.45
2022-09-21T17:22:32.580Z,53.50
2022-09-21T17:25:04.459Z,53.63
2022-09-21T17:27:35.887Z,53.69
2022-09-21T17:30:10.752Z,53.82
2022-09-21T17:32:42.992Z,54.05
2022-09-21T17:35:19.064Z,54.14
2022-09-21T17:37:50.555Z,54.29
2022-09-21T17:40:25.031Z,54.70
2022-09-21T17:42:57.875Z,54.83
2022-09-21T17:45:36.268Z,55.24
2022-09-21T17:48:09.300Z,55.56
2022-09-21T17:50:41.967Z,55.66
2022-09-21T17:53:38.755Z,55.95
2022-09-21T17:56:27.522Z,55.93
2022-09-21T17:59:02.148Z,55.96
2022-09-21T18:01:36.305Z,56.33
2022-09-21T18:04:09.541Z,56.85
2022-09-21T18:06:43.302Z,56.68
2022-09-21T18:09:16.859Z,57.31
2022-09-21T18:11:56.561Z,58.03
2022-09-21T18:14:36.111Z,58.20
2022-09-21T18:17:20.185Z,58.06
2022-09-21T18:20:12.891Z,57.96
2022-09-21T18:22:50.111Z,57.86
2022-09-21T18:25:28.193Z,57.88
2022-09-21T18:28:01.815Z,58.03
2022-09-21T18:30:38.139Z,58.09
2022-09-21T18:33:21.724Z,58.08
2022-09-21T18:36:05.014Z,58.30
2022-09-21T18:38:40.640Z,58.47
2022-09-21T18:41:21.878Z,58.74
2022-09-21T18:44:05.689Z,59.26
2022-09-21T18:46:41.267Z,60.01
2022-09-21T18:49:17.715Z,60.81
2022-09-21T18:51:51.210Z,61.06
2022-09-21T18:54:23.781Z,61.03
2022-09-21T18:56:56.318Z,61.22
2022-09-21T18:59:31.831Z,61.20
2022-09-21T19:02:05.797Z,60.88
2022-09-21T19:04:38.510Z,60.78
2022-09-21T19:07:15.256Z,60.84
2022-09-21T19:09:52.666Z,61.00
2022-09-21T19:12:29.684Z,61.47
2022-09-21T19:15:11.578Z,61.87
2022-09-21T19:17:59.204Z,62.67
2022-09-21T19:20:42.118Z,63.34
2022-09-21T19:23:21.984Z,63.42
2022-09-21T19:25:54.956Z,63.21
2022-09-21T19:28:36.706Z,63.19
2022-09-21T19:31:11.898Z,63.22
2022-09-21T19:33:50.490Z,63.39
2022-09-21T19:36:24.417Z,63.48
2022-09-21T19:38:57.111Z,63.44
2022-09-21T19:41:38.256Z,63.72
2022-09-21T19:44:17.834Z,64.22
2022-09-21T19:46:55.081Z,64.24
2022-09-21T19:49:27.923Z,64.10
2022-09-21T19:51:59.396Z,63.96
2022-09-21T19:54:49.448Z,64.02
2022-09-21T19:57:40.133Z,64.12
2022-09-21T20:00:16.034Z,64.14
2022-09-21T20:02:53.658Z,64.58
2022-09-21T20:05:32.929Z,65.07
2022-09-21T20:08:06.752Z,65.57
2022-09-21T20:10:45.202Z,65.63
2022-09-21T20:13:22.033Z,65.31
2022-09-21T20:15:57.481Z,64.93
2022-09-21T20:18:33.085Z,64.81
2022-09-21T20:21:05.780Z,64.74
2022-09-21T20:23:39.140Z,65.06
2022-09-21T20:26:18.355Z,65.24
2022-09-21T20:28:52.435Z,65.57
2022-09-21T20:31:24.871Z,65.73
2022-09-21T20:33:56.309Z,65.60
2022-09-21T20:36:27.781Z,65.34
2022-09-21T20:39:00.226Z,65.03
2022-09-21T20:41:31.582Z,64.86
2022-09-21T20:44:03.234Z,65.18
2022-09-21T20:46:35.360Z,65.74
2022-09-21T20:49:08.855Z,66.26
2022-09-21T20:51:40.249Z,67.02
2022-09-21T20:54:11.991Z,67.99
2022-09-21T20:56:43.701Z,68.43
2022-09-21T20:59:15.538Z,68.53
2022-09-21T21:01:47.136Z,68.33
2022-09-21T21:04:18.721Z,68.09
2022-09-21T21:06:50.788Z,67.82
2022-09-21T21:09:22.299Z,67.89
2022-09-21T21:11:53.896Z,68.41
2022-09-21T21:14:26.305Z,69.00
2022-09-21T21:16:58.180Z,69.37
2022-09-21T21:19:29.697Z,69.42
2022-09-21T21:22:01.440Z,69.65
2022-09-21T21:24:44.235Z,69.27
2022-09-21T21:27:17.398Z,69.15
2022-09-21T21:29:50.327Z,68.87
2022-09-21T21:32:23.350Z,69.20
2022-09-21T21:34:54.900Z,69.58
2022-09-21T21:37:27.114Z,70.18
2022-09-21T21:39:58.754Z,70.99
2022-09-21T21:42:30.410Z,71.19
2022-09-21T21:45:01.963Z,71.28
2022-09-21T21:47:41.328Z,70.73
2022-09-21T21:50:13.217Z,70.67
2022-09-21T21:52:45.404Z,71.17
2022-09-21T21:55:17.220Z,71.55
2022-09-21T21:57:48.781Z,71.93
2022-09-21T22:00:20.379Z,71.98
2022-09-21T22:02:51.787Z,72.05
2022-09-21T22:05:23.220Z,71.90
2022-09-21T22:07:54.762Z,71.71
2022-09-21T22:10:26.437Z,71.78
2022-09-21T22:12:58.464Z,72.09
2022-09-21T22:15:30.957Z,72.73
2022-09-21T22:18:02.400Z,73.24
2022-09-21T22:20:33.900Z,73.38
2022-09-21T22:23:05.648Z,73.28
2022-09-21T22:25:35.414Z,73.26
2022-09-21T22:28:07.081Z,73.39
2022-09-21T22:30:39.419Z,72.67
2022-09-21T22:33:10.911Z,72.65
2022-09-21T22:35:42.395Z,72.88
2022-09-21T22:38:13.841Z,73.16
2022-09-21T22:40:43.928Z,73.27
2022-09-21T22:43:15.416Z,73.13
2022-09-21T22:45:46.887Z,72.65
2022-09-21T22:48:18.374Z,72.51
2022-09-21T22:50:49.775Z,72.76
2022-09-21T22:53:21.559Z,73.06
2022-09-21T22:56:03.768Z,73.79
2022-09-21T22:58:35.883Z,74.92
2022-09-21T23:01:08.900Z,76.03
2022-09-21T23:03:41.364Z,76.71
2022-09-21T23:06:14.791Z,76.77
2022-09-21T23:08:49.157Z,76.67
2022-09-21T23:11:22.992Z,76.73
2022-09-21T23:13:54.431Z,76.94
2022-09-21T23:16:25.998Z,77.47
2022-09-21T23:18:58.031Z,77.85
2022-09-21T23:21:30.093Z,78.28
2022-09-21T23:24:02.459Z,78.28
2022-09-21T23:26:35.208Z,77.90
2022-09-21T23:29:09.078Z,77.66
2022-09-21T23:31:44.770Z,77.37
2022-09-21T23:34:17.210Z,77.48
2022-09-21T23:36:48.630Z,77.86
2022-09-21T23:39:20.003Z,78.23
2022-09-21T23:41:51.817Z,78.30
2022-09-21T23:44:21.805Z,78.14
2022-09-21T23:46:53.151Z,77.96
2022-09-21T23:49:24.589Z,77.65
2022-09-21T23:51:55.969Z,77.74
2022-09-21T23:54:27.473Z,78.20
2022-09-21T23:56:58.862Z,78.69
2022-09-21T23:59:30.296Z,79.31
